sensor_id;sensor_type;location;lat;lon;timestamp;temperature;humidity
31207;DHT22;17834;52.992;8.856;2023-05-09T00:00:06;11.30;99.90
31207;DHT22;17834;52.992;8.856;2023-05-09T00:02:36;11.30;99.90
31207;DHT22;17834;52.992;8.856;2023-05-09T00:05:02;11.20;99.90
31207;DHT22;17834;52.992;8.856;2023-05-09T00:07:28;11.20;99.90
31207;DHT22;17834;52.992;8.856;2023-05-09T00:09:54;11.20;99.90
31207;DHT22;17834;52.992;8.856;2023-05-09T00:12:19;11.10;99.90
31207;DHT22;17834;52.992;8.856;2023-05-09T00:14:46;11.20;99.90
31207;DHT22;17834;52.992;8.856;2023-05-09T00:17:14;11.20;99.90
31207;DHT22;17834;52.992;8.856;2023-05-09T00:19:42;11.10;99.90
31207;DHT22;17834;52.992;8.856;2023-05-09T00:22:08;11.10;99.90
31207;DHT22;17834;52.992;8.856;2023-05-09T00:24:34;11.10;99.90
31207;DHT22;17834;52.992;8.856;2023-05-09T00:26:59;11.10;99.90
31207;DHT22;17834;52.992;8.856;2023-05-09T00:29:25;11.00;99.90
31207;DHT22;17834;52.992;8.856;2023-05-09T00:31:51;11.10;99.90
31207;DHT22;17834;52.992;8.856;2023-05-09T00:34:16;11.00;99.90
31207;DHT22;17834;52.992;8.856;2023-05-09T00:36:42;10.90;99.90
31207;DHT22;17834;52.992;8.856;2023-05-09T00:39:08;11.00;99.90
31207;DHT22;17834;52.992;8.856;2023-05-09T00:41:34;10.90;99.90
31207;DHT22;17834;52.992;8.856;2023-05-09T00:43:59;10.80;99.90
31207;DHT22;17834;52.992;8.856;2023-05-09T00:46:25;10.90;99.90
31207;DHT22;17834;52.992;8.856;2023-05-09T00:48:51;10.90;99.90
31207;DHT22;17834;52.992;8.856;2023-05-09T00:51:17;10.90;99.90
31207;DHT22;17834;52.992;8.856;2023-05-09T00:53:44;10.90;99.90
31207;DHT22;17834;52.992;8.856;2023-05-09T00:56:10;11.00;99.90
31207;DHT22;17834;52.992;8.856;2023-05-09T00:58:37;11.00;99.90
31207;DHT22;17834;52.992;8.856;2023-05-09T01:01:03;11.00;99.90
31207;DHT22;17834;52.992;8.856;2023-05-09T01:03:29;10.90;99.90
31207;DHT22;17834;52.992;8.856;2023-05-09T01:09:23;10.90;99.90
31207;DHT22;17834;52.992;8.856;2023-05-09T01:11:40;11.00;99.90
31207;DHT22;17834;52.992;8.856;2023-05-09T01:17:25;10.90;99.90
31207;DHT22;17834;52.992;8.856;2023-05-09T01:19:57;10.90;99.90
31207;DHT22;17834;52.992;8.856;2023-05-09T01:22:29;10.90;99.90
31207;DHT22;17834;52.992;8.856;2023-05-09T01:25:11;10.90;99.90
31207;DHT22;17834;52.992;8.856;2023-05-09T01:30:25;10.80;99.90
31207;DHT22;17834;52.992;8.856;2023-05-09T01:32:56;10.70;99.90
31207;DHT22;17834;52.992;8.856;2023-05-09T01:35:25;10.70;99.90
31207;DHT22;17834;52.992;8.856;2023-05-09T01:37:54;10.70;99.90
31207;DHT22;17834;52.992;8.856;2023-05-09T01:40:20;10.70;99.90
31207;DHT22;17834;52.992;8.856;2023-05-09T01:42:56;10.60;99.90
31207;DHT22;17834;52.992;8.856;2023-05-09T01:45:22;10.60;99.90
31207;DHT22;17834;52.992;8.856;2023-05-09T01:47:49;10.60;99.90
31207;DHT22;17834;52.992;8.856;2023-05-09T01:50:17;10.60;99.90
31207;DHT22;17834;52.992;8.856;2023-05-09T01:52:43;10.50;99.90
31207;DHT22;17834;52.992;8.856;2023-05-09T01:55:12;10.50;99.90
31207;DHT22;17834;52.992;8.856;2023-05-09T01:57:39;10.50;99.90
31207;DHT22;17834;52.992;8.856;2023-05-09T02:00:05;10.40;99.90
31207;DHT22;17834;52.992;8.856;2023-05-09T02:02:32;10.40;99.90
31207;DHT22;17834;52.992;8.856;2023-05-09T02:04:59;10.30;99.90
31207;DHT22;17834;52.992;8.856;2023-05-09T02:07:27;10.20;99.90
31207;DHT22;17834;52.992;8.856;2023-05-09T02:09:54;10.20;99.90
31207;DHT22;17834;52.992;8.856;2023-05-09T02:12:22;10.20;99.90
31207;DHT22;17834;52.992;8.856;2023-05-09T02:14:48;10.10;99.90
31207;DHT22;17834;52.992;8.856;2023-05-09T02:17:13;10.10;99.90
31207;DHT22;17834;52.992;8.856;2023-05-09T02:19:44;10.00;99.90
31207;DHT22;17834;52.992;8.856;2023-05-09T02:22:11;10.00;99.90
31207;DHT22;17834;52.992;8.856;2023-05-09T02:24:37;9.90;99.90
31207;DHT22;17834;52.992;8.856;2023-05-09T02:27:03;9.90;99.90
31207;DHT22;17834;52.992;8.856;2023-05-09T02:29:34;9.90;99.90
31207;DHT22;17834;52.992;8.856;2023-05-09T02:32:28;9.90;99.90
31207;DHT22;17834;52.992;8.856;2023-05-09T02:34:56;9.80;99.90
31207;DHT22;17834;52.992;8.856;2023-05-09T02:37:23;9.80;99.90
31207;DHT22;17834;52.992;8.856;2023-05-09T02:39:49;9.70;99.90
31207;DHT22;17834;52.992;8.856;2023-05-09T02:42:20;9.70;99.90
31207;DHT22;17834;52.992;8.856;2023-05-09T02:44:47;9.80;99.90
31207;DHT22;17834;52.992;8.856;2023-05-09T02:47:12;9.70;99.90
31207;DHT22;17834;52.992;8.856;2023-05-09T02:49:38;9.70;99.90
31207;DHT22;17834;52.992;8.856;2023-05-09T02:52:03;9.60;99.90
31207;DHT22;17834;52.992;8.856;2023-05-09T02:54:29;9.60;99.90
31207;DHT22;17834;52.992;8.856;2023-05-09T02:56:54;9.70;99.90
31207;DHT22;17834;52.992;8.856;2023-05-09T02:59:20;9.70;99.90
31207;DHT22;17834;52.992;8.856;2023-05-09T03:01:46;9.60;99.90
31207;DHT22;17834;52.992;8.856;2023-05-09T03:04:11;9.70;99.90
31207;DHT22;17834;52.992;8.856;2023-05-09T03:06:37;9.60;99.90
31207;DHT22;17834;52.992;8.856;2023-05-09T03:09:03;9.60;99.90
31207;DHT22;17834;52.992;8.856;2023-05-09T03:11:28;9.50;99.90
31207;DHT22;17834;52.992;8.856;2023-05-09T03:13:55;9.60;99.90
31207;DHT22;17834;52.992;8.856;2023-05-09T03:16:21;9.60;99.90
31207;DHT22;17834;52.992;8.856;2023-05-09T03:18:47;9.60;99.90
31207;DHT22;17834;52.992;8.856;2023-05-09T03:21:12;9.60;99.90
31207;DHT22;17834;52.992;8.856;2023-05-09T03:23:38;9.60;99.90
31207;DHT22;17834;52.992;8.856;2023-05-09T03:26:04;9.50;99.90
31207;DHT22;17834;52.992;8.856;2023-05-09T03:28:30;9.50;99.90
31207;DHT22;17834;52.992;8.856;2023-05-09T03:30:56;9.60;99.90
31207;DHT22;17834;52.992;8.856;2023-05-09T03:33:21;9.50;99.90
31207;DHT22;17834;52.992;8.856;2023-05-09T03:35:47;9.50;99.90
31207;DHT22;17834;52.992;8.856;2023-05-09T03:38:12;9.50;99.90
31207;DHT22;17834;52.992;8.856;2023-05-09T03:40:38;9.40;99.90
31207;DHT22;17834;52.992;8.856;2023-05-09T03:43:04;9.50;99.90
31207;DHT22;17834;52.992;8.856;2023-05-09T03:45:29;9.40;99.90
31207;DHT22;17834;52.992;8.856;2023-05-09T03:47:55;9.40;99.90
31207;DHT22;17834;52.992;8.856;2023-05-09T03:50:21;9.50;99.90
31207;DHT22;17834;52.992;8.856;2023-05-09T03:52:46;9.50;99.90
31207;DHT22;17834;52.992;8.856;2023-05-09T03:55:12;9.50;99.90
31207;DHT22;17834;52.992;8.856;2023-05-09T03:57:38;9.50;99.90
31207;DHT22;17834;52.992;8.856;2023-05-09T04:00:04;9.50;99.90
31207;DHT22;17834;52.992;8.856;2023-05-09T04:02:32;9.60;99.90
31207;DHT22;17834;52.992;8.856;2023-05-09T04:04:59;9.60;99.90
31207;DHT22;17834;52.992;8.856;2023-05-09T04:07:24;9.70;99.90
31207;DHT22;17834;52.992;8.856;2023-05-09T04:09:50;9.70;99.90
31207;DHT22;17834;52.992;8.856;2023-05-09T04:12:16;9.80;99.90
31207;DHT22;17834;52.992;8.856;2023-05-09T04:14:42;10.00;99.90
31207;DHT22;17834;52.992;8.856;2023-05-09T04:17:08;10.00;99.90
31207;DHT22;17834;52.992;8.856;2023-05-09T04:19:34;10.30;99.90
31207;DHT22;17834;52.992;8.856;2023-05-09T04:22:00;10.70;99.90
31207;DHT22;17834;52.992;8.856;2023-05-09T04:24:25;11.00;99.90
31207;DHT22;17834;52.992;8.856;2023-05-09T04:26:51;11.20;99.90
31207;DHT22;17834;52.992;8.856;2023-05-09T04:29:16;11.30;99.90
31207;DHT22;17834;52.992;8.856;2023-05-09T04:31:42;11.40;99.90
31207;DHT22;17834;52.992;8.856;2023-05-09T04:34:08;11.70;99.90
31207;DHT22;17834;52.992;8.856;2023-05-09T04:36:33;11.80;99.90
31207;DHT22;17834;52.992;8.856;2023-05-09T04:38:59;12.00;99.90
31207;DHT22;17834;52.992;8.856;2023-05-09T04:41:25;12.30;99.90
31207;DHT22;17834;52.992;8.856;2023-05-09T04:43:50;12.80;99.90
31207;DHT22;17834;52.992;8.856;2023-05-09T04:46:16;13.20;99.90
31207;DHT22;17834;52.992;8.856;2023-05-09T04:48:42;13.50;99.90
31207;DHT22;17834;52.992;8.856;2023-05-09T04:51:08;13.80;99.90
31207;DHT22;17834;52.992;8.856;2023-05-09T04:53:33;14.30;99.90
31207;DHT22;17834;52.992;8.856;2023-05-09T04:55:59;14.80;99.90
31207;DHT22;17834;52.992;8.856;2023-05-09T04:58:24;15.20;99.90
31207;DHT22;17834;52.992;8.856;2023-05-09T05:00:51;15.70;99.70
31207;DHT22;17834;52.992;8.856;2023-05-09T05:03:17;15.70;98.20
31207;DHT22;17834;52.992;8.856;2023-05-09T05:05:43;15.80;98.30
31207;DHT22;17834;52.992;8.856;2023-05-09T05:08:08;16.10;97.20
31207;DHT22;17834;52.992;8.856;2023-05-09T05:10:34;16.10;96.30
31207;DHT22;17834;52.992;8.856;2023-05-09T05:12:59;16.10;96.30
31207;DHT22;17834;52.992;8.856;2023-05-09T05:15:25;16.10;96.90
31207;DHT22;17834;52.992;8.856;2023-05-09T05:17:51;16.60;96.40
31207;DHT22;17834;52.992;8.856;2023-05-09T05:20:17;17.50;94.90
31207;DHT22;17834;52.992;8.856;2023-05-09T05:22:43;17.90;93.70
31207;DHT22;17834;52.992;8.856;2023-05-09T05:25:08;18.10;91.80
31207;DHT22;17834;52.992;8.856;2023-05-09T05:27:34;17.70;91.90
31207;DHT22;17834;52.992;8.856;2023-05-09T05:30:00;17.20;91.90
31207;DHT22;17834;52.992;8.856;2023-05-09T05:32:25;16.70;92.60
31207;DHT22;17834;52.992;8.856;2023-05-09T05:34:51;16.30;93.20
31207;DHT22;17834;52.992;8.856;2023-05-09T05:37:16;16.10;94.20
31207;DHT22;17834;52.992;8.856;2023-05-09T05:39:42;16.10;94.30
31207;DHT22;17834;52.992;8.856;2023-05-09T05:42:07;16.00;94.70
31207;DHT22;17834;52.992;8.856;2023-05-09T05:44:33;16.20;95.10
31207;DHT22;17834;52.992;8.856;2023-05-09T05:46:58;17.10;94.70
31207;DHT22;17834;52.992;8.856;2023-05-09T05:49:24;18.30;92.50
31207;DHT22;17834;52.992;8.856;2023-05-09T05:51:50;19.70;90.60
31207;DHT22;17834;52.992;8.856;2023-05-09T05:54:16;20.90;87.60
31207;DHT22;17834;52.992;8.856;2023-05-09T05:56:41;22.20;80.70
31207;DHT22;17834;52.992;8.856;2023-05-09T05:59:07;23.50;72.20
31207;DHT22;17834;52.992;8.856;2023-05-09T06:01:32;24.10;66.00
31207;DHT22;17834;52.992;8.856;2023-05-09T06:03:58;24.70;63.20
31207;DHT22;17834;52.992;8.856;2023-05-09T06:06:25;25.20;60.00
31207;DHT22;17834;52.992;8.856;2023-05-09T06:08:51;25.80;58.10
31207;DHT22;17834;52.992;8.856;2023-05-09T06:11:17;25.90;56.20
31207;DHT22;17834;52.992;8.856;2023-05-09T06:13:43;25.70;55.20
31207;DHT22;17834;52.992;8.856;2023-05-09T06:16:08;24.90;54.50
31207;DHT22;17834;52.992;8.856;2023-05-09T06:18:34;24.70;55.50
31207;DHT22;17834;52.992;8.856;2023-05-09T06:21:02;24.10;56.10
31207;DHT22;17834;52.992;8.856;2023-05-09T06:23:28;23.20;57.00
31207;DHT22;17834;52.992;8.856;2023-05-09T06:25:54;22.60;59.70
31207;DHT22;17834;52.992;8.856;2023-05-09T06:28:19;22.00;59.90
31207;DHT22;17834;52.992;8.856;2023-05-09T06:30:45;21.40;61.00
31207;DHT22;17834;52.992;8.856;2023-05-09T06:33:11;20.70;63.70
31207;DHT22;17834;52.992;8.856;2023-05-09T06:35:36;20.20;65.20
31207;DHT22;17834;52.992;8.856;2023-05-09T06:38:02;19.70;66.40
31207;DHT22;17834;52.992;8.856;2023-05-09T06:40:27;19.30;67.80
31207;DHT22;17834;52.992;8.856;2023-05-09T06:42:53;19.10;68.60
31207;DHT22;17834;52.992;8.856;2023-05-09T06:45:19;18.70;70.80
31207;DHT22;17834;52.992;8.856;2023-05-09T06:47:44;18.40;71.70
31207;DHT22;17834;52.992;8.856;2023-05-09T06:50:10;18.10;73.50
31207;DHT22;17834;52.992;8.856;2023-05-09T06:52:35;17.70;74.80
31207;DHT22;17834;52.992;8.856;2023-05-09T06:55:01;17.50;76.40
31207;DHT22;17834;52.992;8.856;2023-05-09T06:57:27;17.30;78.10
31207;DHT22;17834;52.992;8.856;2023-05-09T06:59:53;17.30;79.40
31207;DHT22;17834;52.992;8.856;2023-05-09T07:02:18;17.40;79.90
31207;DHT22;17834;52.992;8.856;2023-05-09T07:04:44;17.20;81.30
31207;DHT22;17834;52.992;8.856;2023-05-09T07:07:09;17.30;82.80
31207;DHT22;17834;52.992;8.856;2023-05-09T07:09:35;17.50;82.70
31207;DHT22;17834;52.992;8.856;2023-05-09T07:12:01;17.60;83.60
31207;DHT22;17834;52.992;8.856;2023-05-09T07:14:26;17.80;83.30
31207;DHT22;17834;52.992;8.856;2023-05-09T07:16:52;18.00;84.20
31207;DHT22;17834;52.992;8.856;2023-05-09T07:19:17;19.10;82.80
31207;DHT22;17834;52.992;8.856;2023-05-09T07:21:43;21.10;77.10
31207;DHT22;17834;52.992;8.856;2023-05-09T07:24:08;23.10;72.40
31207;DHT22;17834;52.992;8.856;2023-05-09T07:26:34;24.70;67.40
31207;DHT22;17834;52.992;8.856;2023-05-09T07:29:00;25.90;63.10
31207;DHT22;17834;52.992;8.856;2023-05-09T07:31:26;26.70;59.90
31207;DHT22;17834;52.992;8.856;2023-05-09T07:33:52;27.30;58.00
31207;DHT22;17834;52.992;8.856;2023-05-09T07:36:17;27.60;57.20
31207;DHT22;17834;52.992;8.856;2023-05-09T07:38:43;27.20;57.20
31207;DHT22;17834;52.992;8.856;2023-05-09T07:41:08;26.20;57.90
31207;DHT22;17834;52.992;8.856;2023-05-09T07:43:34;25.00;60.20
31207;DHT22;17834;52.992;8.856;2023-05-09T07:46:00;23.80;62.70
31207;DHT22;17834;52.992;8.856;2023-05-09T07:48:26;22.90;64.00
31207;DHT22;17834;52.992;8.856;2023-05-09T07:50:51;22.10;67.00
31207;DHT22;17834;52.992;8.856;2023-05-09T07:53:17;21.50;69.40
31207;DHT22;17834;52.992;8.856;2023-05-09T07:55:42;21.20;70.80
31207;DHT22;17834;52.992;8.856;2023-05-09T07:58:09;21.00;73.00
31207;DHT22;17834;52.992;8.856;2023-05-09T08:00:35;20.80;72.50
31207;DHT22;17834;52.992;8.856;2023-05-09T08:03:01;20.50;73.80
31207;DHT22;17834;52.992;8.856;2023-05-09T08:05:26;20.40;74.70
31207;DHT22;17834;52.992;8.856;2023-05-09T08:07:52;20.30;74.70
31207;DHT22;17834;52.992;8.856;2023-05-09T08:10:17;20.10;75.60
31207;DHT22;17834;52.992;8.856;2023-05-09T08:12:43;20.10;77.40
31207;DHT22;17834;52.992;8.856;2023-05-09T08:15:09;20.00;78.20
31207;DHT22;17834;52.992;8.856;2023-05-09T08:17:34;19.90;78.70
31207;DHT22;17834;52.992;8.856;2023-05-09T08:20:00;19.90;78.20
31207;DHT22;17834;52.992;8.856;2023-05-09T08:22:26;19.90;79.80
31207;DHT22;17834;52.992;8.856;2023-05-09T08:24:51;19.90;79.30
31207;DHT22;17834;52.992;8.856;2023-05-09T08:27:17;19.80;79.40
31207;DHT22;17834;52.992;8.856;2023-05-09T08:29:42;19.80;80.20
31207;DHT22;17834;52.992;8.856;2023-05-09T08:32:08;19.80;80.60
31207;DHT22;17834;52.992;8.856;2023-05-09T08:34:34;19.80;81.30
31207;DHT22;17834;52.992;8.856;2023-05-09T08:37:03;19.70;82.10
31207;DHT22;17834;52.992;8.856;2023-05-09T08:39:32;19.90;83.10
31207;DHT22;17834;52.992;8.856;2023-05-09T08:41:59;19.80;82.40
31207;DHT22;17834;52.992;8.856;2023-05-09T08:44:27;19.90;82.80
31207;DHT22;17834;52.992;8.856;2023-05-09T08:46:59;19.80;82.90
31207;DHT22;17834;52.992;8.856;2023-05-09T08:49:25;19.80;83.10
31207;DHT22;17834;52.992;8.856;2023-05-09T08:51:51;19.80;83.20
31207;DHT22;17834;52.992;8.856;2023-05-09T08:54:17;19.80;84.30
31207;DHT22;17834;52.992;8.856;2023-05-09T08:56:42;19.80;85.10
31207;DHT22;17834;52.992;8.856;2023-05-09T08:59:08;19.70;83.60
31207;DHT22;17834;52.992;8.856;2023-05-09T09:01:34;19.80;85.50
31207;DHT22;17834;52.992;8.856;2023-05-09T09:04:03;19.80;86.80
31207;DHT22;17834;52.992;8.856;2023-05-09T09:06:31;20.00;86.10
31207;DHT22;17834;52.992;8.856;2023-05-09T09:08:57;20.10;84.90
31207;DHT22;17834;52.992;8.856;2023-05-09T09:11:23;20.20;84.00
31207;DHT22;17834;52.992;8.856;2023-05-09T09:13:51;20.20;85.30
31207;DHT22;17834;52.992;8.856;2023-05-09T09:16:19;20.10;85.30
31207;DHT22;17834;52.992;8.856;2023-05-09T09:18:46;20.20;85.70
31207;DHT22;17834;52.992;8.856;2023-05-09T09:21:14;20.20;84.90
31207;DHT22;17834;52.992;8.856;2023-05-09T09:23:42;20.20;85.90
31207;DHT22;17834;52.992;8.856;2023-05-09T09:26:08;20.20;86.60
31207;DHT22;17834;52.992;8.856;2023-05-09T09:28:34;20.40;86.60
31207;DHT22;17834;52.992;8.856;2023-05-09T09:31:00;20.50;87.40
31207;DHT22;17834;52.992;8.856;2023-05-09T09:33:27;20.60;88.30
31207;DHT22;17834;52.992;8.856;2023-05-09T09:35:54;20.70;87.70
31207;DHT22;17834;52.992;8.856;2023-05-09T09:38:21;20.80;87.10
31207;DHT22;17834;52.992;8.856;2023-05-09T09:43:16;20.90;88.40
31207;DHT22;17834;52.992;8.856;2023-05-09T09:45:41;21.10;88.70
31207;DHT22;17834;52.992;8.856;2023-05-09T09:48:07;21.20;87.60
31207;DHT22;17834;52.992;8.856;2023-05-09T09:50:32;21.30;88.00
31207;DHT22;17834;52.992;8.856;2023-05-09T09:52:58;21.40;88.30
31207;DHT22;17834;52.992;8.856;2023-05-09T09:55:28;21.50;88.30
31207;DHT22;17834;52.992;8.856;2023-05-09T09:57:54;21.80;87.20
31207;DHT22;17834;52.992;8.856;2023-05-09T10:00:24;21.80;87.00
31207;DHT22;17834;52.992;8.856;2023-05-09T10:02:53;21.90;86.20
31207;DHT22;17834;52.992;8.856;2023-05-09T10:07:51;22.00;85.60
31207;DHT22;17834;52.992;8.856;2023-05-09T10:10:19;22.10;85.20
31207;DHT22;17834;52.992;8.856;2023-05-09T10:12:46;22.20;85.30
31207;DHT22;17834;52.992;8.856;2023-05-09T10:15:15;22.30;85.20
31207;DHT22;17834;52.992;8.856;2023-05-09T10:17:43;22.50;84.90
31207;DHT22;17834;52.992;8.856;2023-05-09T10:20:09;22.70;84.60
31207;DHT22;17834;52.992;8.856;2023-05-09T10:22:38;22.70;83.90
31207;DHT22;17834;52.992;8.856;2023-05-09T10:25:04;22.80;82.20
31207;DHT22;17834;52.992;8.856;2023-05-09T10:27:34;23.00;82.60
31207;DHT22;17834;52.992;8.856;2023-05-09T10:30:08;23.20;83.50
31207;DHT22;17834;52.992;8.856;2023-05-09T10:32:42;23.40;83.20
31207;DHT22;17834;52.992;8.856;2023-05-09T10:35:11;23.40;80.60
31207;DHT22;17834;52.992;8.856;2023-05-09T10:37:38;23.70;81.60
31207;DHT22;17834;52.992;8.856;2023-05-09T10:40:05;23.90;80.00
31207;DHT22;17834;52.992;8.856;2023-05-09T10:42:31;24.10;81.10
31207;DHT22;17834;52.992;8.856;2023-05-09T10:44:57;24.20;80.20
31207;DHT22;17834;52.992;8.856;2023-05-09T10:47:26;24.30;79.70
31207;DHT22;17834;52.992;8.856;2023-05-09T10:49:52;24.50;79.40
31207;DHT22;17834;52.992;8.856;2023-05-09T10:52:20;24.50;78.80
31207;DHT22;17834;52.992;8.856;2023-05-09T10:54:58;24.40;77.70
31207;DHT22;17834;52.992;8.856;2023-05-09T10:57:26;24.40;79.10
31207;DHT22;17834;52.992;8.856;2023-05-09T10:59:54;24.50;79.00
31207;DHT22;17834;52.992;8.856;2023-05-09T11:02:21;24.60;78.70
31207;DHT22;17834;52.992;8.856;2023-05-09T11:04:51;24.70;77.50
31207;DHT22;17834;52.992;8.856;2023-05-09T11:07:34;24.60;78.20
31207;DHT22;17834;52.992;8.856;2023-05-09T11:10:14;24.80;76.90
31207;DHT22;17834;52.992;8.856;2023-05-09T11:12:59;24.70;76.60
31207;DHT22;17834;52.992;8.856;2023-05-09T11:15:25;24.70;76.50
31207;DHT22;17834;52.992;8.856;2023-05-09T11:18:08;24.70;76.60
31207;DHT22;17834;52.992;8.856;2023-05-09T11:20:35;24.80;78.70
31207;DHT22;17834;52.992;8.856;2023-05-09T11:23:03;24.90;77.50
31207;DHT22;17834;52.992;8.856;2023-05-09T11:25:29;24.90;76.80
31207;DHT22;17834;52.992;8.856;2023-05-09T11:27:59;24.90;76.30
31207;DHT22;17834;52.992;8.856;2023-05-09T11:30:38;24.80;75.80
31207;DHT22;17834;52.992;8.856;2023-05-09T11:33:05;24.80;76.40
31207;DHT22;17834;52.992;8.856;2023-05-09T11:35:32;24.70;77.30
31207;DHT22;17834;52.992;8.856;2023-05-09T11:38:04;24.90;78.50
31207;DHT22;17834;52.992;8.856;2023-05-09T11:40:31;25.00;76.50
31207;DHT22;17834;52.992;8.856;2023-05-09T11:42:57;25.00;76.20
31207;DHT22;17834;52.992;8.856;2023-05-09T11:45:25;24.90;76.90
31207;DHT22;17834;52.992;8.856;2023-05-09T11:47:52;25.00;78.20
31207;DHT22;17834;52.992;8.856;2023-05-09T11:50:19;25.10;74.40
31207;DHT22;17834;52.992;8.856;2023-05-09T11:52:46;25.10;76.00
31207;DHT22;17834;52.992;8.856;2023-05-09T11:55:14;25.10;75.00
31207;DHT22;17834;52.992;8.856;2023-05-09T11:57:53;25.10;76.20
31207;DHT22;17834;52.992;8.856;2023-05-09T12:00:23;24.90;74.60
31207;DHT22;17834;52.992;8.856;2023-05-09T12:02:51;25.00;75.80
31207;DHT22;17834;52.992;8.856;2023-05-09T12:05:19;25.10;76.30
31207;DHT22;17834;52.992;8.856;2023-05-09T12:07:45;25.30;76.40
31207;DHT22;17834;52.992;8.856;2023-05-09T12:10:19;25.40;75.00
31207;DHT22;17834;52.992;8.856;2023-05-09T12:12:48;25.50;75.70
31207;DHT22;17834;52.992;8.856;2023-05-09T12:15:14;25.60;75.80
31207;DHT22;17834;52.992;8.856;2023-05-09T12:17:41;25.60;76.00
31207;DHT22;17834;52.992;8.856;2023-05-09T12:20:07;25.70;74.70
31207;DHT22;17834;52.992;8.856;2023-05-09T12:22:34;25.60;74.40
31207;DHT22;17834;52.992;8.856;2023-05-09T12:25:05;25.80;76.30
31207;DHT22;17834;52.992;8.856;2023-05-09T12:27:32;25.90;73.90
31207;DHT22;17834;52.992;8.856;2023-05-09T12:30:03;25.90;74.80
31207;DHT22;17834;52.992;8.856;2023-05-09T12:32:33;25.90;75.50
31207;DHT22;17834;52.992;8.856;2023-05-09T12:34:59;25.80;74.80
31207;DHT22;17834;52.992;8.856;2023-05-09T12:37:25;25.70;74.80
31207;DHT22;17834;52.992;8.856;2023-05-09T12:40:01;25.50;73.80
31207;DHT22;17834;52.992;8.856;2023-05-09T12:42:27;25.30;74.30
31207;DHT22;17834;52.992;8.856;2023-05-09T12:44:53;25.50;74.20
31207;DHT22;17834;52.992;8.856;2023-05-09T12:47:19;25.50;73.40
31207;DHT22;17834;52.992;8.856;2023-05-09T12:49:48;25.60;72.60
31207;DHT22;17834;52.992;8.856;2023-05-09T12:52:18;25.70;74.20
31207;DHT22;17834;52.992;8.856;2023-05-09T12:54:45;25.80;74.40
31207;DHT22;17834;52.992;8.856;2023-05-09T12:57:24;25.70;73.70
31207;DHT22;17834;52.992;8.856;2023-05-09T12:59:57;25.90;74.30
31207;DHT22;17834;52.992;8.856;2023-05-09T13:02:32;25.90;73.40
31207;DHT22;17834;52.992;8.856;2023-05-09T13:05:24;25.90;74.10
31207;DHT22;17834;52.992;8.856;2023-05-09T13:07:51;25.90;74.40
31207;DHT22;17834;52.992;8.856;2023-05-09T13:10:19;25.90;73.40
31207;DHT22;17834;52.992;8.856;2023-05-09T13:12:46;25.80;74.10
31207;DHT22;17834;52.992;8.856;2023-05-09T13:15:14;25.60;72.80
31207;DHT22;17834;52.992;8.856;2023-05-09T13:17:41;25.50;73.90
31207;DHT22;17834;52.992;8.856;2023-05-09T13:20:07;25.40;73.40
31207;DHT22;17834;52.992;8.856;2023-05-09T13:22:33;25.30;74.60
31207;DHT22;17834;52.992;8.856;2023-05-09T13:24:59;25.30;73.70
31207;DHT22;17834;52.992;8.856;2023-05-09T13:27:24;25.30;73.50
31207;DHT22;17834;52.992;8.856;2023-05-09T13:29:52;25.70;73.70
31207;DHT22;17834;52.992;8.856;2023-05-09T13:32:18;25.90;73.90
31207;DHT22;17834;52.992;8.856;2023-05-09T13:34:43;26.10;73.30
31207;DHT22;17834;52.992;8.856;2023-05-09T13:37:09;26.10;72.10
31207;DHT22;17834;52.992;8.856;2023-05-09T13:39:34;26.20;71.90
31207;DHT22;17834;52.992;8.856;2023-05-09T13:42:00;26.10;71.50
31207;DHT22;17834;52.992;8.856;2023-05-09T13:44:26;25.90;70.90
31207;DHT22;17834;52.992;8.856;2023-05-09T13:46:53;25.70;72.20
31207;DHT22;17834;52.992;8.856;2023-05-09T13:49:19;25.40;71.50
31207;DHT22;17834;52.992;8.856;2023-05-09T13:51:44;25.30;72.00
31207;DHT22;17834;52.992;8.856;2023-05-09T13:54:10;25.20;73.20
31207;DHT22;17834;52.992;8.856;2023-05-09T13:56:38;25.30;74.80
31207;DHT22;17834;52.992;8.856;2023-05-09T13:59:04;25.50;73.10
31207;DHT22;17834;52.992;8.856;2023-05-09T14:01:30;25.80;72.40
31207;DHT22;17834;52.992;8.856;2023-05-09T14:03:55;25.80;71.80
31207;DHT22;17834;52.992;8.856;2023-05-09T14:06:21;25.70;73.20
31207;DHT22;17834;52.992;8.856;2023-05-09T14:08:46;25.70;73.90
31207;DHT22;17834;52.992;8.856;2023-05-09T14:11:12;25.60;73.40
31207;DHT22;17834;52.992;8.856;2023-05-09T14:13:38;25.60;72.40
31207;DHT22;17834;52.992;8.856;2023-05-09T14:16:05;25.70;74.10
31207;DHT22;17834;52.992;8.856;2023-05-09T14:18:31;25.60;72.90
31207;DHT22;17834;52.992;8.856;2023-05-09T14:20:56;25.70;72.70
31207;DHT22;17834;52.992;8.856;2023-05-09T14:23:22;25.60;72.10
31207;DHT22;17834;52.992;8.856;2023-05-09T14:25:48;25.50;73.90
31207;DHT22;17834;52.992;8.856;2023-05-09T14:28:13;25.40;73.50
31207;DHT22;17834;52.992;8.856;2023-05-09T14:30:39;25.20;72.20
31207;DHT22;17834;52.992;8.856;2023-05-09T14:33:05;25.10;73.40
31207;DHT22;17834;52.992;8.856;2023-05-09T14:35:31;24.80;72.30
31207;DHT22;17834;52.992;8.856;2023-05-09T14:37:58;24.70;72.40
31207;DHT22;17834;52.992;8.856;2023-05-09T14:40:24;24.50;72.20
31207;DHT22;17834;52.992;8.856;2023-05-09T14:42:50;24.40;72.00
31207;DHT22;17834;52.992;8.856;2023-05-09T14:45:16;24.40;73.00
31207;DHT22;17834;52.992;8.856;2023-05-09T14:47:42;24.50;74.30
31207;DHT22;17834;52.992;8.856;2023-05-09T14:50:07;24.50;73.80
31207;DHT22;17834;52.992;8.856;2023-05-09T14:52:35;24.50;73.50
31207;DHT22;17834;52.992;8.856;2023-05-09T14:55:01;24.60;73.40
31207;DHT22;17834;52.992;8.856;2023-05-09T14:57:30;24.70;71.90
31207;DHT22;17834;52.992;8.856;2023-05-09T14:59:56;24.60;71.10
31207;DHT22;17834;52.992;8.856;2023-05-09T15:02:22;24.60;71.90
31207;DHT22;17834;52.992;8.856;2023-05-09T15:04:47;24.60;72.20
31207;DHT22;17834;52.992;8.856;2023-05-09T15:07:13;24.50;71.70
31207;DHT22;17834;52.992;8.856;2023-05-09T15:09:39;24.40;71.50
31207;DHT22;17834;52.992;8.856;2023-05-09T15:12:04;24.30;72.20
31207;DHT22;17834;52.992;8.856;2023-05-09T15:14:30;24.10;72.20
31207;DHT22;17834;52.992;8.856;2023-05-09T15:16:55;23.90;73.50
31207;DHT22;17834;52.992;8.856;2023-05-09T15:19:23;23.80;74.90
31207;DHT22;17834;52.992;8.856;2023-05-09T15:21:50;23.70;74.70
31207;DHT22;17834;52.992;8.856;2023-05-09T15:24:16;23.70;74.00
31207;DHT22;17834;52.992;8.856;2023-05-09T15:26:41;23.70;75.70
31207;DHT22;17834;52.992;8.856;2023-05-09T15:29:07;23.70;75.40
31207;DHT22;17834;52.992;8.856;2023-05-09T15:31:35;23.70;74.30
31207;DHT22;17834;52.992;8.856;2023-05-09T15:34:01;23.70;74.80
31207;DHT22;17834;52.992;8.856;2023-05-09T15:36:29;23.50;75.00
31207;DHT22;17834;52.992;8.856;2023-05-09T15:38:56;23.50;73.70
31207;DHT22;17834;52.992;8.856;2023-05-09T15:41:21;23.50;74.20
31207;DHT22;17834;52.992;8.856;2023-05-09T15:43:47;23.50;74.80